This is the latest recevied weather packets stored in our database for station/object OE3EMC-13. If no packets are shown the sender has not sent any weather packets the latest 10 day(s).
| Time | Temp. | Humidity | Pressure | Rain* | Wind** | Luminosity | Snow |
|---|---|---|---|---|---|---|---|
| 1777711995 | 18.89° C | 39% | 1100 hPa | 0 mm | - | - | - |
| 1777711395 | 18.89° C | 39% | 1100 hPa | 0 mm | - | - | - |
| 1777710793 | 16.67° C | 44% | 1100 hPa | 0 mm | - | - | - |
| 1777710193 | 16.67° C | 44% | 1100 hPa | 0 mm | - | - | - |
| 1777709594 | 15° C | 48% | 1100 hPa | 0 mm | - | - | - |
| 1777708993 | 15° C | 48% | 1100 hPa | 0 mm | - | - | - |
| 1777708392 | 13.89° C | 50% | 1100 hPa | 0 mm | - | - | - |
| 1777707792 | 13.89° C | 50% | 1100 hPa | 0 mm | - | - | - |
| 1777707192 | 13.33° C | 54% | 1100 hPa | 0 mm | - | - | - |
| 1777706591 | 13.33° C | 54% | 1100 hPa | 0 mm | - | - | - |
| 1777705992 | 12.22° C | 60% | 1100 hPa | 0 mm | - | - | - |
| 1777705393 | 12.22° C | 60% | 1100 hPa | 0 mm | - | - | - |
| 1777704791 | 11.11° C | 65% | 1100 hPa | 0 mm | - | - | - |
| 1777704191 | 11.11° C | 65% | 1100 hPa | 0 mm | - | - | - |
| 1777703591 | 9.44° C | 77% | 1100 hPa | 0 mm | - | - | - |
| 1777702992 | 9.44° C | 77% | 1100 hPa | 0 mm | - | - | - |
| 1777702392 | 7.22° C | 86% | 1100 hPa | 0 mm | - | - | - |
| 1777701792 | 7.22° C | 86% | 1100 hPa | 0 mm | - | - | - |
| 1777701190 | 6.11° C | 88% | 1100 hPa | 0 mm | - | - | - |
| 1777700591 | 6.11° C | 88% | 1100 hPa | 0 mm | - | - | - |
| 1777699990 | 4.44° C | 88% | 1100 hPa | 0 mm | - | - | - |
| 1777699391 | 4.44° C | 88% | 1100 hPa | 0 mm | - | - | - |
| 1777698790 | 3.33° C | 88% | 1100 hPa | 0 mm | - | - | - |
| 1777698190 | 3.33° C | 88% | 1100 hPa | 0 mm | - | - | - |
| 1777697589 | 2.22° C | 88% | 1100 hPa | 0 mm | - | - | - |
* Rain latest hour (hover to see other rain measurements)
** Current wind speed in m/s (hover to see current wind gust speed)